Time;durP1;ratioP1;P1;durP2;ratioP2;P2;SDS_P1;SDS_P2;PMS_P1;PMS_P2;Temp;Humidity;BMP_temperature;BMP_pressure;BME280_temperature;BME280_humidity;BME280_pressure;Samples;Min_cycle;Max_cycle;Signal;HPM_P1;HPM_P2
2021/05/28 00:02:16;;;;;;;0.52;0.20;;;23.70;38.20;;;;;;5012493;28;20404;-64
2021/05/28 00:04:42;;;;;;;0.80;0.30;;;23.70;38.20;;;;;;5012771;28;20407;-64
2021/05/28 00:07:08;;;;;;;0.70;0.30;;;23.70;38.10;;;;;;5012680;28;20876;-63
2021/05/28 00:09:34;;;;;;;0.80;0.40;;;23.60;38.10;;;;;;5012075;28;20431;-64
2021/05/28 00:12:00;;;;;;;0.60;0.30;;;23.60;38.30;;;;;;5012121;28;20417;-64
2021/05/28 00:14:27;;;;;;;0.68;0.30;;;23.60;38.40;;;;;;5012572;28;20400;-60
2021/05/28 00:16:53;;;;;;;0.90;0.30;;;23.60;38.50;;;;;;5012511;28;20460;-64
2021/05/28 00:19:19;;;;;;;1.10;0.30;;;23.60;38.60;;;;;;5012571;28;20407;-64
2021/05/28 00:21:45;;;;;;;0.30;0.20;;;23.50;38.50;;;;;;5010974;28;20397;-64
2021/05/28 00:24:10;;;;;;;0.82;0.25;;;23.50;38.50;;;;;;5011420;28;20388;-64
2021/05/28 00:26:36;;;;;;;0.67;0.30;;;23.50;38.50;;;;;;5012135;28;20397;-65
2021/05/28 00:29:02;;;;;;;0.50;0.30;;;23.50;38.50;;;;;;5012204;28;20869;-63
2021/05/28 00:31:28;;;;;;;0.67;0.30;;;23.50;38.70;;;;;;5012368;28;20421;-64
2021/05/28 00:33:53;;;;;;;0.60;0.30;;;23.50;38.70;;;;;;5011749;28;20474;-60
2021/05/28 00:36:19;;;;;;;0.70;0.30;;;23.40;38.70;;;;;;5012275;28;20476;-64
2021/05/28 00:38:45;;;;;;;0.52;0.30;;;23.50;38.80;;;;;;5010878;28;20470;-64
2021/05/28 00:41:12;;;;;;;0.47;0.30;;;23.50;38.80;;;;;;5012170;28;20868;-64
2021/05/28 00:43:38;;;;;;;0.70;0.22;;;23.40;38.80;;;;;;5011927;28;20462;-65
2021/05/28 00:46:04;;;;;;;0.50;0.30;;;23.40;38.80;;;;;;5011570;28;20397;-64
2021/05/28 00:48:30;;;;;;;0.60;0.30;;;23.40;38.90;;;;;;5011990;28;20412;-63
2021/05/28 00:50:55;;;;;;;1.15;0.30;;;23.40;38.90;;;;;;5011808;28;20447;-64
2021/05/28 00:53:23;;;;;;;0.40;0.27;;;23.40;38.90;;;;;;5011826;28;20792;-63
2021/05/28 00:55:49;;;;;;;2.00;0.40;;;23.40;38.90;;;;;;5011915;28;20384;-64
2021/05/28 00:58:15;;;;;;;1.10;0.20;;;23.40;38.90;;;;;;5011749;28;20990;-64
2021/05/28 01:00:41;;;;;;;0.95;0.25;;;23.40;38.90;;;;;;5011820;28;20403;-64
2021/05/28 01:03:06;;;;;;;1.20;0.30;;;23.40;38.90;;;;;;5011865;28;20396;-64
2021/05/28 01:05:32;;;;;;;0.45;0.20;;;23.40;38.90;;;;;;5011502;28;20406;-64
2021/05/28 01:07:58;;;;;;;1.30;0.70;;;23.40;38.90;;;;;;5009927;28;20424;-64
2021/05/28 01:10:24;;;;;;;0.98;0.20;;;23.40;38.80;;;;;;5011844;28;20384;-64
2021/05/28 01:12:49;;;;;;;0.70;0.30;;;23.40;38.80;;;;;;5011642;28;20405;-64
2021/05/28 01:15:15;;;;;;;0.90;0.35;;;23.40;38.80;;;;;;5011834;28;20427;-64
2021/05/28 01:17:41;;;;;;;0.60;0.32;;;23.40;38.90;;;;;;5011620;28;20396;-63
2021/05/28 01:20:10;;;;;;;1.20;0.30;;;23.40;38.90;;;;;;5011257;28;20384;-63
2021/05/28 01:22:37;;;;;;;0.77;0.30;;;23.40;38.90;;;;;;5011611;28;20414;-64
2021/05/28 01:25:04;;;;;;;0.50;0.25;;;23.40;38.90;;;;;;5011688;28;20385;-64
2021/05/28 01:27:30;;;;;;;1.73;0.50;;;23.40;38.90;;;;;;5011617;28;20909;-63
2021/05/28 01:29:56;;;;;;;1.00;0.25;;;23.40;38.80;;;;;;5011352;28;20725;-64
2021/05/28 01:32:22;;;;;;;1.25;0.45;;;23.40;38.90;;;;;;5011636;28;20392;-64
2021/05/28 01:34:49;;;;;;;0.90;0.30;;;23.40;38.90;;;;;;5011592;28;20400;-64
2021/05/28 01:37:15;;;;;;;0.52;0.20;;;23.40;38.90;;;;;;5011589;28;20416;-63
2021/05/28 01:39:50;;;;;;;0.30;0.20;;;23.40;38.90;;;;;;5011422;28;20889;-64
2021/05/28 01:42:16;;;;;;;0.67;0.30;;;23.40;38.90;;;;;;5010881;28;20390;-64
2021/05/28 01:44:43;;;;;;;0.50;0.30;;;23.40;38.90;;;;;;5011760;28;20425;-65
2021/05/28 01:47:09;;;;;;;1.30;0.45;;;23.40;38.90;;;;;;5011370;28;20887;-64
2021/05/28 01:49:39;;;;;;;0.53;0.20;;;23.40;38.90;;;;;;5011665;28;20405;-64
2021/05/28 01:52:06;;;;;;;0.50;0.20;;;23.40;38.90;;;;;;5010799;28;20396;-63
2021/05/28 01:54:39;;;;;;;0.40;0.30;;;23.30;38.90;;;;;;5010795;28;20404;-64
2021/05/28 01:57:09;;;;;;;0.50;0.30;;;23.30;38.90;;;;;;5011251;28;20389;-64
2021/05/28 01:59:35;;;;;;;0.90;0.20;;;23.30;38.90;;;;;;5011239;28;20397;-64
2021/05/28 02:02:01;;;;;;;0.53;0.30;;;23.30;38.90;;;;;;5010904;28;20443;-64
2021/05/28 02:04:27;;;;;;;0.60;0.28;;;23.30;38.90;;;;;;5011344;28;20749;-64
2021/05/28 02:06:54;;;;;;;0.60;0.30;;;23.30;38.90;;;;;;5011079;28;20475;-63
2021/05/28 02:09:20;;;;;;;0.40;0.20;;;23.30;38.90;;;;;;5011250;28;20467;-64
2021/05/28 02:11:47;;;;;;;0.57;0.30;;;23.30;38.90;;;;;;5011144;28;20385;-64
2021/05/28 02:14:13;;;;;;;1.17;0.38;;;23.30;38.90;;;;;;5010805;28;20407;-64
2021/05/28 02:16:39;;;;;;;0.90;0.30;;;23.30;39.00;;;;;;5011263;28;20861;-64
2021/05/28 02:19:07;;;;;;;0.40;0.20;;;23.30;39.00;;;;;;5014702;28;20408;-64
2021/05/28 02:21:34;;;;;;;0.63;0.23;;;23.30;39.00;;;;;;5014650;28;20385;-64
2021/05/28 02:24:00;;;;;;;0.22;0.10;;;23.30;39.10;;;;;;5014441;28;20392;-64
2021/05/28 02:26:26;;;;;;;0.50;0.20;;;23.30;39.00;;;;;;5014720;28;20389;-64
2021/05/28 02:28:51;;;;;;;0.30;0.20;;;23.30;39.00;;;;;;5014526;28;20421;-64
2021/05/28 02:31:17;;;;;;;0.40;0.28;;;23.30;39.00;;;;;;5014557;28;20389;-63
2021/05/28 02:33:43;;;;;;;0.50;0.27;;;23.30;39.00;;;;;;5014459;28;20393;-64
2021/05/28 02:36:09;;;;;;;0.30;0.20;;;23.30;39.00;;;;;;5013978;28;21026;-64
2021/05/28 02:38:35;;;;;;;1.00;0.30;;;23.30;39.00;;;;;;5014372;28;20450;-64
2021/05/28 02:41:01;;;;;;;0.57;0.30;;;23.30;39.00;;;;;;5014368;28;20479;-63
2021/05/28 02:43:27;;;;;;;0.60;0.30;;;23.30;39.00;;;;;;5014197;28;20893;-63
2021/05/28 02:45:53;;;;;;;0.68;0.30;;;23.30;39.00;;;;;;5014270;28;20393;-64
2021/05/28 02:48:19;;;;;;;0.35;0.20;;;23.30;39.00;;;;;;5013641;28;20520;-64
2021/05/28 02:50:48;;;;;;;0.70;0.30;;;23.30;39.00;;;;;;5014039;28;20468;-64
2021/05/28 02:53:16;;;;;;;0.60;0.20;;;23.30;38.90;;;;;;5014106;28;20393;-64
2021/05/28 02:55:43;;;;;;;1.00;0.20;;;23.30;38.90;;;;;;5014030;28;20421;-64
2021/05/28 02:58:09;;;;;;;0.38;0.20;;;23.30;39.60;;;;;;5013569;28;20959;-64
2021/05/28 03:00:35;;;;;;;0.50;0.30;;;23.30;38.90;;;;;;5013884;28;20393;-64
2021/05/28 03:03:00;;;;;;;0.60;0.20;;;23.30;39.00;;;;;;5013920;28;20455;-64
2021/05/28 03:05:27;;;;;;;0.80;0.30;;;23.30;39.00;;;;;;5013947;28;20488;-64
2021/05/28 03:07:52;;;;;;;0.50;0.30;;;23.30;39.00;;;;;;5013411;28;20412;-63
2021/05/28 03:10:18;;;;;;;0.80;0.20;;;23.30;39.00;;;;;;5012421;28;20404;-65
2021/05/28 03:12:44;;;;;;;1.00;0.52;;;23.30;39.10;;;;;;5013289;28;20427;-64
2021/05/28 03:15:10;;;;;;;1.30;0.30;;;23.30;39.30;;;;;;5013746;28;20385;-64
2021/05/28 03:17:40;;;;;;;2.30;0.35;;;23.30;39.50;;;;;;5013458;28;20447;-64
2021/05/28 03:20:15;;;;;;;0.95;0.30;;;23.30;39.20;;;;;;5013119;28;20399;-63
2021/05/28 03:22:41;;;;;;;0.65;0.30;;;23.40;39.80;;;;;;5005025;28;20404;-64
2021/05/28 03:25:10;;;;;;;1.45;0.32;;;23.40;40.70;;;;;;4996219;28;20810;-62
2021/05/28 03:27:36;;;;;;;2.70;0.40;;;23.50;40.60;;;;;;4996448;28;20439;-64
2021/05/28 03:30:10;;;;;;;1.67;0.40;;;23.50;40.80;;;;;;4996456;28;20403;-63
2021/05/28 03:32:36;;;;;;;3.88;0.30;;;23.50;40.30;;;;;;4993606;28;20394;-64
2021/05/28 03:35:03;;;;;;;2.20;0.30;;;23.50;40.70;;;;;;4993760;28;20461;-63
2021/05/28 03:37:29;;;;;;;2.67;0.30;;;23.60;41.20;;;;;;4993607;28;20403;-64
2021/05/28 03:39:54;;;;;;;1.30;0.43;;;23.60;41.00;;;;;;4993574;28;20399;-64
2021/05/28 03:42:20;;;;;;;3.80;0.40;;;23.60;40.90;;;;;;4992971;28;20474;-65
2021/05/28 03:44:46;;;;;;;3.97;0.32;;;23.60;40.80;;;;;;4993531;28;20394;-64
2021/05/28 03:47:12;;;;;;;3.15;0.30;;;23.70;40.90;;;;;;4992114;28;20402;-62
2021/05/28 03:49:39;;;;;;;1.67;0.40;;;23.70;41.30;;;;;;5008396;28;20434;-64
2021/05/28 03:52:06;;;;;;;1.58;0.30;;;23.70;40.90;;;;;;4993060;28;20867;-63
2021/05/28 03:54:32;;;;;;;0.70;0.40;;;23.60;41.00;;;;;;4993176;28;20395;-64
2021/05/28 03:56:58;;;;;;;1.45;0.22;;;23.60;41.00;;;;;;4993374;28;20382;-64
2021/05/28 03:59:24;;;;;;;1.92;0.30;;;23.60;40.90;;;;;;4993290;28;20454;-65
2021/05/28 04:01:49;;;;;;;1.00;0.30;;;23.70;40.70;;;;;;4993244;28;20545;-65
2021/05/28 04:04:15;;;;;;;8.15;0.70;;;23.60;40.20;;;;;;4992758;28;20390;-64
2021/05/28 04:06:41;;;;;;;3.07;0.50;;;23.60;40.90;;;;;;5008094;28;20438;-63
2021/05/28 04:09:06;;;;;;;2.60;0.60;;;23.50;40.60;;;;;;4992916;28;20422;-63
2021/05/28 04:11:32;;;;;;;4.10;0.60;;;23.60;40.30;;;;;;4991785;28;20387;-63
2021/05/28 04:13:58;;;;;;;3.20;0.60;;;23.50;39.80;;;;;;4993000;28;20412;-62
2021/05/28 04:16:23;;;;;;;6.43;1.00;;;23.50;39.90;;;;;;4992495;28;20403;-64
2021/05/28 04:18:49;;;;;;;2.45;0.55;;;23.50;40.00;;;;;;4992843;28;20406;-63
2021/05/28 04:21:15;;;;;;;5.00;0.60;;;23.40;40.90;;;;;;4992873;28;20386;-63
2021/05/28 04:23:40;;;;;;;3.08;0.50;;;23.50;41.30;;;;;;4992222;28;20460;-64
2021/05/28 04:26:06;;;;;;;2.70;0.60;;;23.50;40.80;;;;;;4991845;28;20536;-59
2021/05/28 04:28:32;;;;;;;3.15;0.50;;;23.50;40.50;;;;;;4992185;28;20903;-64
2021/05/28 04:30:58;;;;;;;2.87;0.70;;;23.50;39.90;;;;;;4992663;28;20394;-65
2021/05/28 04:33:24;;;;;;;4.82;0.50;;;23.50;39.60;;;;;;4992974;28;20864;-64
2021/05/28 04:35:50;;;;;;;3.55;0.50;;;23.50;39.40;;;;;;4992421;28;20423;-64
2021/05/28 04:38:16;;;;;;;2.33;0.40;;;23.50;39.40;;;;;;4992109;28;20464;-63
2021/05/28 04:40:42;;;;;;;3.28;0.50;;;23.50;39.30;;;;;;4991942;28;20390;-62
2021/05/28 04:43:08;;;;;;;2.13;0.60;;;23.50;39.20;;;;;;4992320;28;20413;-63
2021/05/28 04:45:34;;;;;;;2.65;0.35;;;23.50;39.20;;;;;;4992449;28;20387;-64
2021/05/28 04:47:59;;;;;;;4.50;0.45;;;23.50;39.10;;;;;;4992238;28;20418;-64
2021/05/28 04:50:31;;;;;;;1.55;0.50;;;23.50;39.10;;;;;;4990711;28;20418;-64
2021/05/28 04:53:00;;;;;;;2.92;0.50;;;23.50;39.10;;;;;;4992483;28;20502;-62
2021/05/28 04:55:27;;;;;;;2.22;0.40;;;23.50;39.10;;;;;;4992401;28;20393;-64
2021/05/28 04:57:53;;;;;;;1.77;0.40;;;23.50;39.00;;;;;;4992244;28;20399;-63
2021/05/28 05:00:19;;;;;;;2.85;0.52;;;23.60;39.60;;;;;;4991882;28;20387;-65
2021/05/28 05:02:45;;;;;;;1.10;0.30;;;23.50;39.00;;;;;;4992096;28;20882;-64
2021/05/28 05:05:11;;;;;;;3.00;0.50;;;23.50;39.00;;;;;;4992250;28;20402;-64
2021/05/28 05:07:37;;;;;;;0.80;0.30;;;23.50;39.00;;;;;;4991884;28;21090;-63
2021/05/28 05:10:03;;;;;;;1.77;0.40;;;23.50;38.90;;;;;;4991948;28;20395;-63
2021/05/28 05:12:30;;;;;;;0.85;0.30;;;23.50;38.90;;;;;;4992003;28;20394;-64
2021/05/28 05:14:55;;;;;;;1.90;0.30;;;23.50;38.90;;;;;;4991948;28;20487;-63
2021/05/28 05:17:21;;;;;;;1.83;0.30;;;23.50;38.90;;;;;;4992187;28;20386;-64
2021/05/28 05:19:47;;;;;;;1.87;0.40;;;23.50;38.80;;;;;;4991985;28;20756;-63
2021/05/28 05:22:12;;;;;;;1.60;0.30;;;23.50;38.80;;;;;;4991575;28;20394;-59
2021/05/28 05:24:38;;;;;;;1.10;0.40;;;23.50;38.70;;;;;;4992057;28;20395;-62
2021/05/28 05:27:04;;;;;;;1.90;0.50;;;23.50;39.10;;;;;;5007092;28;20387;-64
2021/05/28 05:29:30;;;;;;;1.67;0.52;;;23.50;39.30;;;;;;4992062;28;20409;-64
2021/05/28 05:31:55;;;;;;;3.03;0.63;;;23.50;39.40;;;;;;4991958;28;20387;-59
2021/05/28 05:34:21;;;;;;;1.75;0.50;;;23.40;39.50;;;;;;4991524;28;20754;-59
2021/05/28 05:36:47;;;;;;;3.70;0.60;;;23.40;39.50;;;;;;4991918;28;20473;-59
2021/05/28 05:39:12;;;;;;;3.25;0.70;;;23.40;39.60;;;;;;4990379;28;20497;-63
2021/05/28 05:41:38;;;;;;;2.97;0.63;;;23.40;39.70;;;;;;4991276;28;20423;-59
2021/05/28 05:44:04;;;;;;;2.38;0.60;;;23.40;39.80;;;;;;4991824;28;20418;-60
2021/05/28 05:46:30;;;;;;;1.98;0.70;;;23.40;39.80;;;;;;4991448;28;20397;-59
2021/05/28 05:48:56;;;;;;;1.13;0.57;;;23.40;39.80;;;;;;4990545;28;20918;-59
2021/05/28 05:51:22;;;;;;;1.90;0.60;;;23.30;39.80;;;;;;4991677;28;20412;-60
2021/05/28 05:53:47;;;;;;;1.80;0.55;;;23.30;39.90;;;;;;4995545;28;20399;-60
2021/05/28 05:56:13;;;;;;;1.90;0.70;;;23.30;39.80;;;;;;4995296;28;20453;-60
2021/05/28 05:58:41;;;;;;;2.58;0.93;;;23.30;39.80;;;;;;4995425;28;20444;-59
2021/05/28 06:01:07;;;;;;;2.20;0.73;;;23.30;39.80;;;;;;4995497;28;20382;-59
2021/05/28 06:03:33;;;;;;;1.88;0.60;;;23.30;39.90;;;;;;4995264;28;20552;-61
2021/05/28 06:05:58;;;;;;;2.20;0.60;;;23.30;40.10;;;;;;4995504;28;20892;-63
2021/05/28 06:08:24;;;;;;;2.20;0.70;;;23.20;40.50;;;;;;4993939;28;20429;-63
2021/05/28 06:10:50;;;;;;;1.50;0.50;;;23.20;40.50;;;;;;5013739;28;20400;-63
2021/05/28 06:13:17;;;;;;;2.35;0.60;;;23.20;41.80;;;;;;5012359;28;20428;-60
2021/05/28 06:15:43;;;;;;;2.83;0.70;;;23.30;41.80;;;;;;5013029;28;20435;-59
2021/05/28 06:18:10;;;;;;;1.55;0.40;;;23.30;41.90;;;;;;5013825;28;20400;-60
2021/05/28 06:20:36;;;;;;;2.50;0.55;;;23.30;41.50;;;;;;5029070;28;20476;-63
2021/05/28 06:23:02;;;;;;;2.00;0.50;;;23.30;41.70;;;;;;5012582;28;20512;-63
2021/05/28 06:25:28;;;;;;;1.67;0.65;;;23.40;41.70;;;;;;5014503;28;20377;-63
2021/05/28 06:27:54;;;;;;;2.50;0.50;;;23.40;41.70;;;;;;5014331;28;20467;-63
2021/05/28 06:30:21;;;;;;;3.67;0.60;;;23.40;41.40;;;;;;5013857;28;20400;-58
2021/05/28 06:32:47;;;;;;;2.90;0.57;;;23.40;41.60;;;;;;5029437;28;20393;-64
2021/05/28 06:35:13;;;;;;;2.37;0.50;;;23.40;41.70;;;;;;5014270;28;20393;-61
2021/05/28 06:37:38;;;;;;;2.00;0.50;;;23.40;41.60;;;;;;5014264;28;20389;-62
2021/05/28 06:40:07;;;;;;;3.05;0.60;;;23.40;42.30;;;;;;5013266;28;20408;-59
2021/05/28 06:42:34;;;;;;;3.08;0.50;;;23.40;41.60;;;;;;5013531;28;20404;-63
2021/05/28 06:45:00;;;;;;;0.75;0.40;;;23.40;41.40;;;;;;5014116;28;20455;-61
2021/05/28 06:47:25;;;;;;;1.55;0.40;;;23.40;41.40;;;;;;5013996;28;20389;-63
2021/05/28 06:49:52;;;;;;;2.75;0.55;;;23.40;41.40;;;;;;5013747;28;20409;-62
2021/05/28 06:52:18;;;;;;;3.33;0.80;;;23.40;41.30;;;;;;5013647;28;20872;-63
2021/05/28 06:54:44;;;;;;;3.85;1.00;;;23.40;41.30;;;;;;5013887;28;20873;-63
2021/05/28 06:57:10;;;;;;;2.78;1.10;;;23.40;41.30;;;;;;5013285;28;20393;-63
2021/05/28 06:59:36;;;;;;;3.97;1.20;;;23.50;41.50;;;;;;5012420;28;20403;-64
2021/05/28 07:02:01;;;;;;;4.25;1.70;;;23.50;41.40;;;;;;5013598;28;20416;-63
2021/05/28 07:04:27;;;;;;;3.53;1.00;;;23.50;41.40;;;;;;5012794;28;20452;-63
2021/05/28 07:06:53;;;;;;;2.42;1.00;;;23.50;41.40;;;;;;5013800;28;20454;-64
2021/05/28 07:09:18;;;;;;;3.37;0.80;;;23.50;41.40;;;;;;5011990;28;22116;-65
2021/05/28 07:11:44;;;;;;;2.33;0.80;;;23.50;41.20;;;;;;5013336;28;20408;-63
2021/05/28 07:14:10;;;;;;;2.10;0.80;;;23.60;41.30;;;;;;5013518;28;20727;-64
2021/05/28 07:16:35;;;;;;;2.60;0.70;;;23.50;41.10;;;;;;5013255;28;20389;-63
2021/05/28 07:19:01;;;;;;;2.23;0.70;;;23.60;41.10;;;;;;5013616;28;20742;-64
2021/05/28 07:21:27;;;;;;;1.60;0.63;;;23.60;41.00;;;;;;5012978;28;20397;-63
2021/05/28 07:23:53;;;;;;;2.38;0.60;;;23.60;41.00;;;;;;5013426;28;20393;-63
2021/05/28 07:26:19;;;;;;;1.88;0.70;;;23.60;40.90;;;;;;5012710;28;20896;-64
2021/05/28 07:28:45;;;;;;;2.00;0.63;;;23.60;40.80;;;;;;5013237;28;20417;-63
2021/05/28 07:31:11;;;;;;;2.25;0.60;;;23.60;40.80;;;;;;5013301;28;20865;-62
2021/05/28 07:33:38;;;;;;;1.65;0.60;;;23.70;40.90;;;;;;5013209;28;20393;-64
2021/05/28 07:36:05;;;;;;;1.60;0.50;;;23.70;40.80;;;;;;5013042;28;20880;-62
2021/05/28 07:38:31;;;;;;;1.38;0.50;;;23.70;40.80;;;;;;5012605;28;20405;-64
2021/05/28 07:40:57;;;;;;;2.35;0.60;;;23.70;40.70;;;;;;5013265;28;20451;-63
2021/05/28 07:43:22;;;;;;;2.50;0.68;;;23.80;40.80;;;;;;5028031;28;20421;-62
2021/05/28 07:45:51;;;;;;;1.40;0.50;;;23.80;40.70;;;;;;5013045;28;20404;-63
2021/05/28 07:48:21;;;;;;;1.20;0.53;;;23.80;40.70;;;;;;5012800;28;20415;-64
2021/05/28 07:50:48;;;;;;;1.38;0.55;;;23.80;40.60;;;;;;5011644;28;20469;-58
2021/05/28 07:53:22;;;;;;;1.23;0.55;;;23.80;40.60;;;;;;5011665;28;20381;-59
2021/05/28 07:55:48;;;;;;;0.70;0.40;;;23.80;40.50;;;;;;5012693;28;20446;-64
2021/05/28 07:58:14;;;;;;;1.23;0.50;;;23.90;40.50;;;;;;5012504;28;20749;-64
2021/05/28 08:00:40;;;;;;;2.30;0.50;;;23.90;40.40;;;;;;5012535;28;20412;-61
2021/05/28 08:03:06;;;;;;;1.10;0.50;;;23.90;40.20;;;;;;5012884;28;20412;-64
2021/05/28 08:05:32;;;;;;;1.58;0.57;;;23.90;40.10;;;;;;5011450;28;20435;-68
2021/05/28 08:07:58;;;;;;;2.40;0.40;;;23.90;39.80;;;;;;5012574;28;20471;-64
2021/05/28 08:10:27;;;;;;;1.40;0.50;;;23.90;39.80;;;;;;5011114;28;20461;-64
2021/05/28 08:12:52;;;;;;;1.60;0.50;;;23.90;39.30;;;;;;5011046;28;20381;-63
2021/05/28 08:15:19;;;;;;;2.22;0.70;;;23.90;39.80;;;;;;5011171;28;20396;-63
2021/05/28 08:17:48;;;;;;;1.50;0.50;;;23.90;39.30;;;;;;5012518;28;20428;-64
2021/05/28 08:20:15;;;;;;;2.80;0.55;;;23.90;39.20;;;;;;5012454;28;20399;-59
2021/05/28 08:22:41;;;;;;;2.00;0.50;;;23.80;39.30;;;;;;5009084;28;20425;-59
2021/05/28 08:25:07;;;;;;;1.50;0.40;;;23.80;39.20;;;;;;5008880;28;20401;-58
2021/05/28 08:27:33;;;;;;;4.63;0.50;;;23.80;39.30;;;;;;5011830;28;20420;-58
2021/05/28 08:29:59;;;;;;;2.00;0.70;;;23.80;39.40;;;;;;5011848;28;20396;-58
2021/05/28 08:32:25;;;;;;;1.83;0.40;;;23.80;39.50;;;;;;5011777;28;20407;-58
2021/05/28 08:34:51;;;;;;;2.00;0.50;;;23.90;39.60;;;;;;5011925;28;20427;-58
2021/05/28 08:37:16;;;;;;;2.22;0.50;;;23.80;39.50;;;;;;5011476;28;20391;-59
2021/05/28 08:39:42;;;;;;;2.10;0.70;;;23.80;39.70;;;;;;5011955;28;20463;-59
2021/05/28 08:42:10;;;;;;;3.45;0.60;;;23.80;39.70;;;;;;5011908;28;20385;-59
2021/05/28 08:44:37;;;;;;;2.67;0.80;;;23.80;39.70;;;;;;5011588;28;20405;-58
2021/05/28 08:47:04;;;;;;;1.63;0.50;;;23.80;39.60;;;;;;5011540;28;20393;-58
2021/05/28 08:49:30;;;;;;;1.83;0.40;;;23.90;39.50;;;;;;5011702;28;20850;-58
2021/05/28 08:51:57;;;;;;;1.58;0.40;;;23.90;39.40;;;;;;5011911;28;20427;-59
2021/05/28 08:54:24;;;;;;;1.80;0.50;;;23.90;39.30;;;;;;5009083;28;20442;-58
2021/05/28 08:56:51;;;;;;;1.73;0.50;;;23.90;39.20;;;;;;5011474;28;20399;-59
2021/05/28 08:59:17;;;;;;;2.17;0.50;;;23.90;39.40;;;;;;5011760;28;20424;-59
2021/05/28 09:01:43;;;;;;;4.63;0.60;;;23.90;39.10;;;;;;5011794;28;20427;-59
2021/05/28 09:04:11;;;;;;;3.38;0.50;;;23.80;39.10;;;;;;5010444;28;20401;-59
2021/05/28 09:06:42;;;;;;;1.53;0.50;;;23.90;39.60;;;;;;5010893;28;20396;-59
2021/05/28 09:09:14;;;;;;;5.22;0.77;;;23.80;39.60;;;;;;5011770;28;20533;-58
2021/05/28 09:11:51;;;;;;;11.10;1.30;;;23.80;40.00;;;;;;5011437;28;20388;-58
2021/05/28 09:14:30;;;;;;;7.03;0.95;;;23.80;39.50;;;;;;5011680;28;20459;-59
2021/05/28 09:16:56;;;;;;;5.57;1.00;;;23.80;40.00;;;;;;5011940;28;20397;-58
2021/05/28 09:19:24;;;;;;;5.00;0.70;;;23.80;39.90;;;;;;5011833;28;20458;-59
2021/05/28 09:22:02;;;;;;;3.85;0.70;;;23.80;41.20;;;;;;5011599;28;20404;-59
2021/05/28 09:24:36;;;;;;;4.07;0.85;;;23.80;40.90;;;;;;5011203;28;20389;-59
2021/05/28 09:27:23;;;;;;;6.13;0.90;;;23.80;41.40;;;;;;5014348;28;20471;-59
2021/05/28 09:30:11;;;;;;;4.68;1.00;;;23.80;40.40;;;;;;5015604;28;20429;-59
2021/05/28 09:32:45;;;;;;;6.10;0.70;;;23.80;40.30;;;;;;5015232;28;20403;-59
2021/05/28 09:35:17;;;;;;;6.38;0.80;;;23.90;39.90;;;;;;5015639;28;20408;-59
2021/05/28 09:37:48;;;;;;;3.50;0.80;;;23.90;39.50;;;;;;5015507;28;20423;-62
2021/05/28 09:40:20;;;;;;;5.18;0.70;;;23.90;39.30;;;;;;5015568;28;20401;-60
2021/05/28 09:43:00;;;;;;;3.90;0.70;;;23.90;39.10;;;;;;5014939;28;20416;-59
2021/05/28 09:45:35;;;;;;;4.70;1.20;;;23.80;39.50;;;;;;5015409;28;20401;-59
2021/05/28 09:48:03;;;;;;;3.37;0.70;;;23.90;39.30;;;;;;5015342;28;20452;-59
2021/05/28 09:50:34;;;;;;;4.78;0.80;;;23.90;39.20;;;;;;5014899;28;20419;-59
2021/05/28 09:53:04;;;;;;;4.47;0.80;;;23.90;39.10;;;;;;5015329;28;20427;-59
2021/05/28 09:55:32;;;;;;;5.93;0.73;;;23.90;39.30;;;;;;5015222;28;20392;-60
2021/05/28 09:57:58;;;;;;;4.45;0.90;;;23.90;39.20;;;;;;5014571;28;20381;-59
2021/05/28 10:00:36;;;;;;;3.30;0.82;;;23.90;39.10;;;;;;5014611;28;20393;-59
2021/05/28 10:03:18;;;;;;;4.38;0.60;;;23.90;39.20;;;;;;5013735;28;20451;-60
2021/05/28 10:05:46;;;;;;;2.80;1.10;;;23.90;39.10;;;;;;5014928;28;20381;-60
2021/05/28 10:08:13;;;;;;;3.58;0.90;;;23.90;39.20;;;;;;5014759;28;20445;-60
2021/05/28 10:10:41;;;;;;;3.55;0.80;;;23.80;39.30;;;;;;5014369;28;20427;-60
2021/05/28 10:13:11;;;;;;;3.05;0.75;;;23.80;39.30;;;;;;5014571;28;20404;-60
2021/05/28 10:15:48;;;;;;;2.90;0.70;;;23.80;39.20;;;;;;5014704;28;20391;-59
2021/05/28 10:18:16;;;;;;;2.63;0.68;;;23.80;39.40;;;;;;5014783;28;20473;-59
2021/05/28 10:20:44;;;;;;;4.03;0.70;;;23.90;39.50;;;;;;5014223;28;20427;-59
2021/05/28 10:23:11;;;;;;;4.50;0.60;;;23.90;39.50;;;;;;5014659;28;20500;-59
2021/05/28 10:25:39;;;;;;;2.97;0.60;;;23.90;39.50;;;;;;5014594;28;20741;-60
2021/05/28 10:28:28;;;;;;;3.13;0.60;;;23.90;39.30;;;;;;5014536;28;20413;-60
2021/05/28 10:30:54;;;;;;;2.28;0.50;;;23.90;39.30;;;;;;5014648;28;20393;-59
2021/05/28 10:33:27;;;;;;;2.95;0.80;;;23.90;39.30;;;;;;5014516;28;20954;-59
2021/05/28 10:35:58;;;;;;;2.28;0.55;;;23.90;39.30;;;;;;5014444;28;20385;-59
2021/05/28 10:38:33;;;;;;;1.90;0.70;;;23.90;39.30;;;;;;5013323;28;20963;-59
2021/05/28 10:41:04;;;;;;;3.67;0.63;;;23.90;39.30;;;;;;5014420;28;20396;-59
2021/05/28 10:43:31;;;;;;;1.30;0.50;;;23.90;39.30;;;;;;5014160;28;20424;-60
2021/05/28 10:46:05;;;;;;;2.80;0.40;;;23.90;39.40;;;;;;5012962;28;20408;-60
2021/05/28 10:48:37;;;;;;;2.73;0.70;;;23.90;39.40;;;;;;5013720;28;20421;-59
2021/05/28 10:51:22;;;;;;;1.90;0.40;;;23.80;39.30;;;;;;5014148;28;20389;-60
2021/05/28 10:53:53;;;;;;;2.55;0.60;;;23.80;39.30;;;;;;5014096;28;20429;-60
2021/05/28 10:56:24;;;;;;;1.40;0.50;;;23.80;39.30;;;;;;5014088;28;20466;-59
2021/05/28 10:58:56;;;;;;;1.90;0.55;;;23.80;39.40;;;;;;5012486;28;20401;-60
2021/05/28 11:01:34;;;;;;;2.10;0.75;;;23.80;39.40;;;;;;5014132;28;20479;-60
2021/05/28 11:04:01;;;;;;;3.07;0.60;;;23.80;39.40;;;;;;5013877;28;20777;-60
2021/05/28 11:06:27;;;;;;;1.20;0.40;;;23.80;39.50;;;;;;5012321;28;20397;-59
2021/05/28 11:09:05;;;;;;;1.88;0.65;;;23.80;39.50;;;;;;5013546;28;20427;-59
2021/05/28 11:11:41;;;;;;;1.60;0.50;;;23.80;39.50;;;;;;5012458;28;20393;-60
2021/05/28 11:14:09;;;;;;;2.13;0.52;;;23.80;39.50;;;;;;5013180;28;20451;-59
2021/05/28 11:16:57;;;;;;;1.50;0.40;;;23.80;39.50;;;;;;5012588;28;20397;-60
2021/05/28 11:19:32;;;;;;;1.45;0.43;;;23.80;39.50;;;;;;5005644;28;20488;-60
2021/05/28 11:22:04;;;;;;;0.80;0.30;;;23.80;39.50;;;;;;5013680;28;20397;-59
2021/05/28 11:24:48;;;;;;;2.28;0.40;;;23.80;39.60;;;;;;5013315;28;20431;-60
2021/05/28 11:27:24;;;;;;;1.23;0.50;;;23.80;39.50;;;;;;5013339;28;20479;-60
2021/05/28 11:30:15;;;;;;;2.23;0.60;;;23.80;39.50;;;;;;5013481;28;20504;-60
2021/05/28 11:32:44;;;;;;;1.17;0.50;;;23.80;39.50;;;;;;5012544;28;20407;-60
2021/05/28 11:35:41;;;;;;;1.23;0.40;;;23.80;39.50;;;;;;5012000;28;20838;-60
2021/05/28 11:38:10;;;;;;;1.23;0.50;;;23.80;39.50;;;;;;5013341;28;20472;-59
2021/05/28 11:40:35;;;;;;;1.75;0.50;;;23.80;39.60;;;;;;5012672;28;20397;-60
2021/05/28 11:43:15;;;;;;;1.90;0.75;;;23.80;39.70;;;;;;5011788;28;20435;-61
2021/05/28 11:45:54;;;;;;;1.45;0.50;;;23.80;39.60;;;;;;5013139;28;20396;-64
2021/05/28 11:48:22;;;;;;;0.90;0.50;;;23.80;39.50;;;;;;5013093;28;20413;-60
2021/05/28 11:50:50;;;;;;;0.98;0.40;;;23.80;39.70;;;;;;5012508;28;20388;-59
2021/05/28 11:53:17;;;;;;;1.45;0.45;;;23.80;39.60;;;;;;5013038;28;20467;-60
2021/05/28 11:55:49;;;;;;;1.40;0.50;;;23.80;39.60;;;;;;5013011;28;20897;-60
2021/05/28 11:58:17;;;;;;;1.70;0.60;;;23.70;39.60;;;;;;5009913;28;20896;-60
2021/05/28 12:00:44;;;;;;;1.20;0.40;;;23.80;39.60;;;;;;5011199;28;20401;-60
2021/05/28 12:03:10;;;;;;;1.23;0.47;;;23.80;39.60;;;;;;5012845;28;20451;-60
2021/05/28 12:05:38;;;;;;;1.20;0.43;;;23.80;39.60;;;;;;5011306;28;20397;-59
2021/05/28 12:08:17;;;;;;;1.40;0.40;;;23.80;39.60;;;;;;5012703;28;20408;-59
2021/05/28 12:10:49;;;;;;;1.42;0.50;;;23.80;39.60;;;;;;5012091;28;20397;-60
2021/05/28 12:13:19;;;;;;;1.15;0.43;;;23.80;39.50;;;;;;5012545;28;20834;-60
2021/05/28 12:15:47;;;;;;;0.90;0.43;;;23.80;39.60;;;;;;5012455;28;20442;-61
2021/05/28 12:18:27;;;;;;;1.50;0.50;;;23.80;39.60;;;;;;5012653;28;20381;-60
2021/05/28 12:21:02;;;;;;;1.40;0.50;;;23.80;39.60;;;;;;5012124;28;20380;-59
2021/05/28 12:23:29;;;;;;;1.50;0.47;;;23.80;39.70;;;;;;5012435;28;20395;-60
2021/05/28 12:25:58;;;;;;;1.38;0.60;;;23.80;39.70;;;;;;5012378;28;20815;-60
2021/05/28 12:28:35;;;;;;;1.33;0.60;;;23.80;39.60;;;;;;5012276;28;20495;-60
2021/05/28 12:31:07;;;;;;;0.80;0.50;;;23.80;39.60;;;;;;5011917;28;20392;-60
2021/05/28 12:33:35;;;;;;;1.13;0.43;;;23.80;39.60;;;;;;5012019;28;20400;-59
2021/05/28 12:36:04;;;;;;;1.55;0.43;;;23.70;39.60;;;;;;5012346;28;20435;-59
2021/05/28 12:38:50;;;;;;;1.20;0.50;;;23.80;39.70;;;;;;5012041;28;20393;-60
2021/05/28 12:41:19;;;;;;;1.10;0.70;;;23.70;39.60;;;;;;5012192;28;20416;-60
2021/05/28 12:43:47;;;;;;;0.70;0.30;;;23.70;39.60;;;;;;5012118;28;20413;-60
2021/05/28 12:46:39;;;;;;;0.80;0.35;;;23.70;39.60;;;;;;5011217;28;20399;-60
2021/05/28 12:49:09;;;;;;;1.27;0.40;;;23.70;40.20;;;;;;5009638;28;20432;-60
2021/05/28 12:51:40;;;;;;;1.55;0.50;;;23.70;40.00;;;;;;5028446;28;20782;-60
2021/05/28 12:54:23;;;;;;;1.30;0.40;;;23.80;39.80;;;;;;5000013;28;20383;-59